LFRD/DNR METAR and TAF weather

Enter ICAO airport designator
Station Type Date Time Source
LFRD METAR 2020/04/10 19:00 UTC NOAA

LFRD 101900Z AUTO 10005KT CAVOK 20/08 Q1020


Station Type Date Time Source
LFRD Decoded METAR 2020/04/10 19:00 UTC NOAA

Dinard, France (LFRD) 48-35N 002-04W 60M
Apr 10, 2020 - 03:00 PM EDT / 2020.04.10 1900 UTC
Wind: from the E (100 degrees) at 6 MPH (5 KT):0
Visibility: greater than 7 mile(s):0
Temperature: 68 F (20 C)
Dew Point: 46 F (8 C)
Relative Humidity: 45%
Pressure (altimeter): 30.12 in. Hg (1020 hPa)
ob: LFRD 101900Z AUTO 10005KT CAVOK 20/08 Q1020
cycle: 19

Station Type Date Time Source
LFRD TAF 2020/03/24 23:27 UTC NOAA

TAF
AMD TAF
AMD LFRD 242322Z 2423/2506 CNL

Example: see airport list